sensor_id;sensor_type;location;lat;lon;timestamp;P1;durP1;ratioP1;P2;durP2;ratioP2
17741;SDS011;8993;51.822;-2.268;2023-03-13T00:04:10;12.34;;;1.84;;
17741;SDS011;8993;51.822;-2.268;2023-03-13T00:09:15;9.57;;;1.68;;
17741;SDS011;8993;51.822;-2.268;2023-03-13T00:14:18;11.51;;;1.73;;
17741;SDS011;8993;51.822;-2.268;2023-03-13T00:19:23;8.90;;;1.66;;
17741;SDS011;8993;51.822;-2.268;2023-03-13T00:24:27;9.51;;;1.81;;
17741;SDS011;8993;51.822;-2.268;2023-03-13T00:29:32;9.73;;;1.87;;
17741;SDS011;8993;51.822;-2.268;2023-03-13T00:34:35;10.77;;;1.70;;
17741;SDS011;8993;51.822;-2.268;2023-03-13T00:39:41;10.67;;;1.79;;
17741;SDS011;8993;51.822;-2.268;2023-03-13T00:44:45;10.85;;;1.87;;
17741;SDS011;8993;51.822;-2.268;2023-03-13T00:49:49;9.75;;;1.68;;
17741;SDS011;8993;51.822;-2.268;2023-03-13T00:54:53;9.96;;;1.74;;
17741;SDS011;8993;51.822;-2.268;2023-03-13T00:59:56;11.14;;;1.73;;
17741;SDS011;8993;51.822;-2.268;2023-03-13T01:05:00;9.56;;;1.63;;
17741;SDS011;8993;51.822;-2.268;2023-03-13T01:10:05;13.26;;;1.87;;
17741;SDS011;8993;51.822;-2.268;2023-03-13T01:15:08;11.92;;;1.93;;
17741;SDS011;8993;51.822;-2.268;2023-03-13T01:20:13;15.11;;;2.08;;
17741;SDS011;8993;51.822;-2.268;2023-03-13T01:25:16;12.48;;;1.85;;
17741;SDS011;8993;51.822;-2.268;2023-03-13T01:30:21;11.83;;;1.88;;
17741;SDS011;8993;51.822;-2.268;2023-03-13T01:35:25;12.08;;;1.70;;
17741;SDS011;8993;51.822;-2.268;2023-03-13T01:40:30;7.80;;;1.23;;
17741;SDS011;8993;51.822;-2.268;2023-03-13T01:50:37;6.58;;;1.05;;
17741;SDS011;8993;51.822;-2.268;2023-03-13T01:55:41;6.69;;;1.07;;
17741;SDS011;8993;51.822;-2.268;2023-03-13T02:00:46;8.17;;;1.08;;
17741;SDS011;8993;51.822;-2.268;2023-03-13T02:05:50;7.83;;;1.14;;
17741;SDS011;8993;51.822;-2.268;2023-03-13T02:10:56;7.51;;;0.99;;
17741;SDS011;8993;51.822;-2.268;2023-03-13T02:15:58;8.06;;;1.14;;
17741;SDS011;8993;51.822;-2.268;2023-03-13T02:21:05;6.97;;;0.88;;
17741;SDS011;8993;51.822;-2.268;2023-03-13T02:26:06;5.70;;;0.97;;
17741;SDS011;8993;51.822;-2.268;2023-03-13T02:31:10;6.21;;;0.82;;
17741;SDS011;8993;51.822;-2.268;2023-03-13T02:36:14;7.53;;;0.98;;
17741;SDS011;8993;51.822;-2.268;2023-03-13T02:41:18;5.88;;;0.92;;
17741;SDS011;8993;51.822;-2.268;2023-03-13T02:46:22;6.82;;;0.83;;
17741;SDS011;8993;51.822;-2.268;2023-03-13T02:51:27;4.71;;;0.81;;
17741;SDS011;8993;51.822;-2.268;2023-03-13T02:56:30;4.51;;;0.77;;
17741;SDS011;8993;51.822;-2.268;2023-03-13T03:01:34;4.89;;;1.16;;
17741;SDS011;8993;51.822;-2.268;2023-03-13T03:06:38;5.49;;;1.12;;
17741;SDS011;8993;51.822;-2.268;2023-03-13T03:11:44;5.49;;;0.81;;
17741;SDS011;8993;51.822;-2.268;2023-03-13T03:16:48;4.82;;;0.81;;
17741;SDS011;8993;51.822;-2.268;2023-03-13T03:21:52;6.71;;;0.84;;
17741;SDS011;8993;51.822;-2.268;2023-03-13T03:26:56;5.77;;;0.75;;
17741;SDS011;8993;51.822;-2.268;2023-03-13T03:32:00;6.02;;;0.85;;
17741;SDS011;8993;51.822;-2.268;2023-03-13T03:37:04;4.10;;;0.67;;
17741;SDS011;8993;51.822;-2.268;2023-03-13T03:42:08;4.33;;;0.66;;
17741;SDS011;8993;51.822;-2.268;2023-03-13T03:47:12;4.63;;;0.67;;
17741;SDS011;8993;51.822;-2.268;2023-03-13T03:52:16;5.63;;;0.59;;
17741;SDS011;8993;51.822;-2.268;2023-03-13T03:57:20;6.73;;;0.88;;
17741;SDS011;8993;51.822;-2.268;2023-03-13T04:02:25;6.65;;;0.76;;
17741;SDS011;8993;51.822;-2.268;2023-03-13T04:07:29;10.57;;;1.02;;
17741;SDS011;8993;51.822;-2.268;2023-03-13T04:12:33;12.58;;;1.34;;
17741;SDS011;8993;51.822;-2.268;2023-03-13T04:17:37;9.48;;;1.31;;
17741;SDS011;8993;51.822;-2.268;2023-03-13T04:22:41;10.58;;;1.42;;
17741;SDS011;8993;51.822;-2.268;2023-03-13T04:27:45;15.55;;;1.64;;
17741;SDS011;8993;51.822;-2.268;2023-03-13T04:32:49;17.89;;;1.90;;
17741;SDS011;8993;51.822;-2.268;2023-03-13T04:37:53;16.06;;;1.84;;
17741;SDS011;8993;51.822;-2.268;2023-03-13T04:42:57;13.89;;;2.08;;
17741;SDS011;8993;51.822;-2.268;2023-03-13T04:48:01;11.30;;;1.26;;
17741;SDS011;8993;51.822;-2.268;2023-03-13T04:53:05;16.66;;;2.28;;
17741;SDS011;8993;51.822;-2.268;2023-03-13T04:58:10;21.51;;;2.43;;
17741;SDS011;8993;51.822;-2.268;2023-03-13T05:03:14;25.97;;;2.94;;
17741;SDS011;8993;51.822;-2.268;2023-03-13T05:08:18;27.26;;;3.25;;
17741;SDS011;8993;51.822;-2.268;2023-03-13T05:13:22;24.54;;;2.51;;
17741;SDS011;8993;51.822;-2.268;2023-03-13T05:18:26;24.35;;;2.71;;
17741;SDS011;8993;51.822;-2.268;2023-03-13T05:23:30;26.12;;;3.04;;
17741;SDS011;8993;51.822;-2.268;2023-03-13T05:28:34;22.14;;;2.62;;
17741;SDS011;8993;51.822;-2.268;2023-03-13T05:33:38;23.54;;;2.61;;
17741;SDS011;8993;51.822;-2.268;2023-03-13T05:38:42;27.39;;;3.11;;
17741;SDS011;8993;51.822;-2.268;2023-03-13T05:43:47;35.15;;;3.91;;
17741;SDS011;8993;51.822;-2.268;2023-03-13T05:48:51;33.59;;;4.10;;
17741;SDS011;8993;51.822;-2.268;2023-03-13T05:53:55;32.67;;;4.14;;
17741;SDS011;8993;51.822;-2.268;2023-03-13T05:58:59;35.26;;;4.20;;
17741;SDS011;8993;51.822;-2.268;2023-03-13T06:04:03;39.38;;;5.25;;
17741;SDS011;8993;51.822;-2.268;2023-03-13T06:09:07;37.70;;;4.61;;
17741;SDS011;8993;51.822;-2.268;2023-03-13T06:14:12;41.06;;;5.04;;
17741;SDS011;8993;51.822;-2.268;2023-03-13T06:19:16;36.21;;;4.80;;
17741;SDS011;8993;51.822;-2.268;2023-03-13T06:24:19;41.69;;;4.63;;
17741;SDS011;8993;51.822;-2.268;2023-03-13T06:29:25;45.33;;;5.80;;
17741;SDS011;8993;51.822;-2.268;2023-03-13T06:34:29;46.83;;;5.34;;
17741;SDS011;8993;51.822;-2.268;2023-03-13T06:39:33;45.81;;;5.56;;
17741;SDS011;8993;51.822;-2.268;2023-03-13T06:44:37;45.22;;;5.41;;
17741;SDS011;8993;51.822;-2.268;2023-03-13T06:49:41;51.64;;;5.80;;
17741;SDS011;8993;51.822;-2.268;2023-03-13T06:54:45;48.85;;;6.01;;
17741;SDS011;8993;51.822;-2.268;2023-03-13T06:59:49;48.37;;;5.66;;
17741;SDS011;8993;51.822;-2.268;2023-03-13T07:04:53;53.31;;;5.96;;
17741;SDS011;8993;51.822;-2.268;2023-03-13T07:09:57;50.09;;;5.65;;
17741;SDS011;8993;51.822;-2.268;2023-03-13T07:15:02;54.29;;;6.24;;
17741;SDS011;8993;51.822;-2.268;2023-03-13T07:20:06;49.84;;;6.15;;
17741;SDS011;8993;51.822;-2.268;2023-03-13T07:25:09;49.43;;;5.23;;
17741;SDS011;8993;51.822;-2.268;2023-03-13T07:30:13;48.98;;;5.52;;
17741;SDS011;8993;51.822;-2.268;2023-03-13T07:35:18;52.53;;;5.87;;
17741;SDS011;8993;51.822;-2.268;2023-03-13T07:40:22;43.14;;;5.07;;
17741;SDS011;8993;51.822;-2.268;2023-03-13T07:45:26;46.10;;;5.41;;
17741;SDS011;8993;51.822;-2.268;2023-03-13T07:50:30;47.57;;;5.84;;
17741;SDS011;8993;51.822;-2.268;2023-03-13T07:55:33;55.66;;;6.19;;
17741;SDS011;8993;51.822;-2.268;2023-03-13T08:00:38;50.74;;;5.60;;
17741;SDS011;8993;51.822;-2.268;2023-03-13T08:05:41;56.02;;;6.25;;
17741;SDS011;8993;51.822;-2.268;2023-03-13T08:10:45;50.26;;;6.32;;
17741;SDS011;8993;51.822;-2.268;2023-03-13T08:15:49;55.43;;;6.12;;
17741;SDS011;8993;51.822;-2.268;2023-03-13T08:20:53;52.33;;;5.76;;
17741;SDS011;8993;51.822;-2.268;2023-03-13T08:26:00;53.25;;;6.59;;
17741;SDS011;8993;51.822;-2.268;2023-03-13T08:31:09;53.59;;;6.62;;
17741;SDS011;8993;51.822;-2.268;2023-03-13T08:36:08;59.32;;;6.93;;
17741;SDS011;8993;51.822;-2.268;2023-03-13T08:41:10;52.32;;;6.18;;
17741;SDS011;8993;51.822;-2.268;2023-03-13T08:46:14;58.30;;;6.82;;
17741;SDS011;8993;51.822;-2.268;2023-03-13T08:51:18;58.31;;;6.81;;
17741;SDS011;8993;51.822;-2.268;2023-03-13T08:56:22;56.88;;;6.88;;
17741;SDS011;8993;51.822;-2.268;2023-03-13T09:01:27;59.65;;;7.56;;
17741;SDS011;8993;51.822;-2.268;2023-03-13T09:06:30;64.23;;;7.02;;
17741;SDS011;8993;51.822;-2.268;2023-03-13T09:11:35;61.86;;;6.57;;
17741;SDS011;8993;51.822;-2.268;2023-03-13T09:16:38;54.59;;;6.49;;
17741;SDS011;8993;51.822;-2.268;2023-03-13T09:21:43;50.81;;;6.09;;
17741;SDS011;8993;51.822;-2.268;2023-03-13T09:26:46;52.89;;;6.52;;
17741;SDS011;8993;51.822;-2.268;2023-03-13T09:31:50;48.02;;;6.15;;
17741;SDS011;8993;51.822;-2.268;2023-03-13T09:36:55;39.58;;;5.24;;
17741;SDS011;8993;51.822;-2.268;2023-03-13T09:42:01;38.49;;;5.10;;
17741;SDS011;8993;51.822;-2.268;2023-03-13T09:47:04;40.13;;;4.84;;
17741;SDS011;8993;51.822;-2.268;2023-03-13T09:52:12;43.95;;;5.19;;
17741;SDS011;8993;51.822;-2.268;2023-03-13T09:57:13;48.19;;;5.99;;
17741;SDS011;8993;51.822;-2.268;2023-03-13T10:02:18;50.00;;;6.68;;
17741;SDS011;8993;51.822;-2.268;2023-03-13T10:07:19;51.32;;;6.55;;
17741;SDS011;8993;51.822;-2.268;2023-03-13T10:12:24;57.71;;;7.00;;
17741;SDS011;8993;51.822;-2.268;2023-03-13T10:17:30;58.23;;;6.91;;
17741;SDS011;8993;51.822;-2.268;2023-03-13T10:22:32;55.12;;;7.73;;
17741;SDS011;8993;51.822;-2.268;2023-03-13T10:27:42;60.38;;;7.26;;
17741;SDS011;8993;51.822;-2.268;2023-03-13T10:32:40;62.49;;;7.93;;
17741;SDS011;8993;51.822;-2.268;2023-03-13T10:37:44;62.10;;;7.97;;
17741;SDS011;8993;51.822;-2.268;2023-03-13T10:42:51;55.92;;;7.61;;
17741;SDS011;8993;51.822;-2.268;2023-03-13T10:47:55;57.86;;;7.36;;
17741;SDS011;8993;51.822;-2.268;2023-03-13T10:53:06;47.38;;;6.45;;
17741;SDS011;8993;51.822;-2.268;2023-03-13T10:58:03;43.82;;;6.11;;
17741;SDS011;8993;51.822;-2.268;2023-03-13T11:03:12;48.34;;;6.56;;
17741;SDS011;8993;51.822;-2.268;2023-03-13T11:08:18;49.89;;;6.74;;
17741;SDS011;8993;51.822;-2.268;2023-03-13T11:13:18;49.54;;;6.56;;
17741;SDS011;8993;51.822;-2.268;2023-03-13T11:18:21;50.51;;;6.61;;
17741;SDS011;8993;51.822;-2.268;2023-03-13T11:23:25;44.73;;;6.46;;
17741;SDS011;8993;51.822;-2.268;2023-03-13T11:28:31;47.68;;;7.03;;
17741;SDS011;8993;51.822;-2.268;2023-03-13T11:33:35;51.27;;;6.71;;
17741;SDS011;8993;51.822;-2.268;2023-03-13T11:38:36;51.41;;;6.86;;
17741;SDS011;8993;51.822;-2.268;2023-03-13T11:43:43;50.48;;;6.77;;
17741;SDS011;8993;51.822;-2.268;2023-03-13T11:48:48;47.51;;;6.77;;
17741;SDS011;8993;51.822;-2.268;2023-03-13T11:53:54;55.25;;;7.48;;
17741;SDS011;8993;51.822;-2.268;2023-03-13T11:58:55;52.14;;;7.34;;
17741;SDS011;8993;51.822;-2.268;2023-03-13T12:03:56;50.06;;;7.08;;
17741;SDS011;8993;51.822;-2.268;2023-03-13T12:09:02;46.04;;;5.95;;
17741;SDS011;8993;51.822;-2.268;2023-03-13T12:14:07;47.13;;;6.54;;
17741;SDS011;8993;51.822;-2.268;2023-03-13T12:19:10;47.52;;;6.05;;
17741;SDS011;8993;51.822;-2.268;2023-03-13T12:24:17;48.94;;;6.55;;
17741;SDS011;8993;51.822;-2.268;2023-03-13T12:29:18;45.51;;;6.30;;
17741;SDS011;8993;51.822;-2.268;2023-03-13T12:34:21;40.18;;;5.70;;
17741;SDS011;8993;51.822;-2.268;2023-03-13T12:39:27;45.01;;;5.95;;
17741;SDS011;8993;51.822;-2.268;2023-03-13T12:44:29;40.98;;;5.57;;
17741;SDS011;8993;51.822;-2.268;2023-03-13T12:49:40;38.42;;;5.82;;
17741;SDS011;8993;51.822;-2.268;2023-03-13T12:54:39;42.23;;;5.87;;
17741;SDS011;8993;51.822;-2.268;2023-03-13T12:59:41;38.19;;;5.71;;
17741;SDS011;8993;51.822;-2.268;2023-03-13T13:04:45;39.73;;;5.60;;
17741;SDS011;8993;51.822;-2.268;2023-03-13T13:14:54;36.00;;;5.14;;
17741;SDS011;8993;51.822;-2.268;2023-03-13T13:19:57;40.99;;;5.47;;
17741;SDS011;8993;51.822;-2.268;2023-03-13T13:25:01;39.38;;;5.53;;
17741;SDS011;8993;51.822;-2.268;2023-03-13T13:30:21;41.14;;;5.86;;
17741;SDS011;8993;51.822;-2.268;2023-03-13T13:40:22;39.98;;;5.45;;
17741;SDS011;8993;51.822;-2.268;2023-03-13T13:45:19;37.02;;;5.25;;
17741;SDS011;8993;51.822;-2.268;2023-03-13T13:50:24;36.95;;;4.68;;
17741;SDS011;8993;51.822;-2.268;2023-03-13T13:55:29;45.56;;;5.06;;
17741;SDS011;8993;51.822;-2.268;2023-03-13T14:00:34;42.77;;;5.11;;
17741;SDS011;8993;51.822;-2.268;2023-03-13T14:05:34;36.77;;;4.62;;
17741;SDS011;8993;51.822;-2.268;2023-03-13T14:10:40;35.87;;;4.41;;
17741;SDS011;8993;51.822;-2.268;2023-03-13T14:15:44;36.63;;;4.31;;
17741;SDS011;8993;51.822;-2.268;2023-03-13T14:20:55;36.13;;;4.62;;
17741;SDS011;8993;51.822;-2.268;2023-03-13T14:25:51;34.68;;;4.65;;
17741;SDS011;8993;51.822;-2.268;2023-03-13T14:30:56;37.72;;;5.05;;
17741;SDS011;8993;51.822;-2.268;2023-03-13T14:35:59;46.67;;;5.98;;
17741;SDS011;8993;51.822;-2.268;2023-03-13T14:41:03;39.94;;;5.22;;
17741;SDS011;8993;51.822;-2.268;2023-03-13T14:46:12;41.35;;;5.04;;
17741;SDS011;8993;51.822;-2.268;2023-03-13T14:51:16;40.87;;;5.43;;
17741;SDS011;8993;51.822;-2.268;2023-03-13T14:56:16;45.79;;;5.42;;
17741;SDS011;8993;51.822;-2.268;2023-03-13T15:01:22;44.22;;;5.29;;
17741;SDS011;8993;51.822;-2.268;2023-03-13T15:06:23;42.82;;;5.17;;
17741;SDS011;8993;51.822;-2.268;2023-03-13T15:11:27;39.91;;;5.56;;
17741;SDS011;8993;51.822;-2.268;2023-03-13T15:16:31;37.47;;;4.60;;
17741;SDS011;8993;51.822;-2.268;2023-03-13T15:21:35;30.93;;;3.85;;
17741;SDS011;8993;51.822;-2.268;2023-03-13T15:26:39;36.25;;;4.99;;
17741;SDS011;8993;51.822;-2.268;2023-03-13T15:31:43;39.23;;;5.44;;
17741;SDS011;8993;51.822;-2.268;2023-03-13T15:36:47;43.20;;;5.41;;
17741;SDS011;8993;51.822;-2.268;2023-03-13T15:41:51;45.60;;;6.03;;
17741;SDS011;8993;51.822;-2.268;2023-03-13T15:46:55;40.39;;;5.09;;
17741;SDS011;8993;51.822;-2.268;2023-03-13T15:51:59;38.45;;;5.33;;
17741;SDS011;8993;51.822;-2.268;2023-03-13T15:57:03;53.52;;;5.90;;
17741;SDS011;8993;51.822;-2.268;2023-03-13T16:02:12;45.17;;;5.28;;
17741;SDS011;8993;51.822;-2.268;2023-03-13T16:07:12;45.70;;;5.01;;
17741;SDS011;8993;51.822;-2.268;2023-03-13T16:12:15;28.33;;;2.90;;
17741;SDS011;8993;51.822;-2.268;2023-03-13T16:17:19;19.06;;;2.28;;
17741;SDS011;8993;51.822;-2.268;2023-03-13T16:22:24;18.42;;;1.97;;
17741;SDS011;8993;51.822;-2.268;2023-03-13T16:27:27;23.24;;;2.53;;
17741;SDS011;8993;51.822;-2.268;2023-03-13T16:32:32;19.45;;;2.22;;
17741;SDS011;8993;51.822;-2.268;2023-03-13T16:37:36;16.08;;;1.90;;
17741;SDS011;8993;51.822;-2.268;2023-03-13T16:42:39;16.30;;;1.51;;
17741;SDS011;8993;51.822;-2.268;2023-03-13T16:47:44;19.71;;;1.96;;
17741;SDS011;8993;51.822;-2.268;2023-03-13T16:52:48;14.29;;;1.56;;
17741;SDS011;8993;51.822;-2.268;2023-03-13T16:57:52;17.56;;;1.75;;
17741;SDS011;8993;51.822;-2.268;2023-03-13T17:02:55;14.19;;;1.39;;
17741;SDS011;8993;51.822;-2.268;2023-03-13T17:07:59;15.09;;;1.63;;
17741;SDS011;8993;51.822;-2.268;2023-03-13T17:13:03;16.12;;;1.68;;
17741;SDS011;8993;51.822;-2.268;2023-03-13T17:18:07;19.70;;;1.64;;
17741;SDS011;8993;51.822;-2.268;2023-03-13T17:23:11;16.90;;;1.75;;
17741;SDS011;8993;51.822;-2.268;2023-03-13T17:28:15;17.73;;;1.86;;
17741;SDS011;8993;51.822;-2.268;2023-03-13T17:33:19;21.41;;;1.85;;
17741;SDS011;8993;51.822;-2.268;2023-03-13T17:38:23;18.63;;;1.69;;
17741;SDS011;8993;51.822;-2.268;2023-03-13T17:43:27;19.49;;;1.75;;
17741;SDS011;8993;51.822;-2.268;2023-03-13T17:48:31;21.13;;;2.34;;
17741;SDS011;8993;51.822;-2.268;2023-03-13T17:53:36;24.78;;;2.36;;
17741;SDS011;8993;51.822;-2.268;2023-03-13T17:58:40;28.95;;;3.35;;
17741;SDS011;8993;51.822;-2.268;2023-03-13T18:03:44;28.76;;;3.61;;
17741;SDS011;8993;51.822;-2.268;2023-03-13T18:08:56;35.31;;;3.74;;
17741;SDS011;8993;51.822;-2.268;2023-03-13T18:13:49;34.62;;;3.47;;
17741;SDS011;8993;51.822;-2.268;2023-03-13T18:18:53;36.11;;;3.84;;
17741;SDS011;8993;51.822;-2.268;2023-03-13T18:23:56;35.95;;;3.85;;
17741;SDS011;8993;51.822;-2.268;2023-03-13T18:29:01;41.97;;;4.34;;
17741;SDS011;8993;51.822;-2.268;2023-03-13T18:34:04;37.35;;;4.17;;
17741;SDS011;8993;51.822;-2.268;2023-03-13T18:39:09;49.12;;;5.08;;
17741;SDS011;8993;51.822;-2.268;2023-03-13T18:44:12;50.17;;;5.44;;
17741;SDS011;8993;51.822;-2.268;2023-03-13T18:49:16;47.62;;;5.22;;
17741;SDS011;8993;51.822;-2.268;2023-03-13T18:54:20;47.77;;;6.14;;
17741;SDS011;8993;51.822;-2.268;2023-03-13T18:59:24;49.34;;;5.77;;
17741;SDS011;8993;51.822;-2.268;2023-03-13T19:04:28;52.51;;;6.27;;
17741;SDS011;8993;51.822;-2.268;2023-03-13T19:09:32;49.72;;;5.59;;
17741;SDS011;8993;51.822;-2.268;2023-03-13T19:14:36;51.52;;;6.30;;
17741;SDS011;8993;51.822;-2.268;2023-03-13T19:19:40;58.27;;;5.75;;
17741;SDS011;8993;51.822;-2.268;2023-03-13T19:24:44;50.18;;;4.99;;
17741;SDS011;8993;51.822;-2.268;2023-03-13T19:29:48;44.51;;;5.02;;
17741;SDS011;8993;51.822;-2.268;2023-03-13T19:34:52;44.60;;;5.29;;
17741;SDS011;8993;51.822;-2.268;2023-03-13T19:39:56;49.64;;;5.62;;
17741;SDS011;8993;51.822;-2.268;2023-03-13T19:45:00;46.37;;;4.78;;
17741;SDS011;8993;51.822;-2.268;2023-03-13T19:50:04;47.06;;;5.40;;
17741;SDS011;8993;51.822;-2.268;2023-03-13T19:55:08;46.93;;;5.26;;
17741;SDS011;8993;51.822;-2.268;2023-03-13T20:00:15;41.89;;;4.64;;
17741;SDS011;8993;51.822;-2.268;2023-03-13T20:05:16;46.00;;;4.71;;
17741;SDS011;8993;51.822;-2.268;2023-03-13T20:10:20;42.05;;;4.56;;
17741;SDS011;8993;51.822;-2.268;2023-03-13T20:15:24;42.86;;;4.68;;
17741;SDS011;8993;51.822;-2.268;2023-03-13T20:20:28;39.13;;;4.31;;
17741;SDS011;8993;51.822;-2.268;2023-03-13T20:25:32;39.96;;;4.05;;
17741;SDS011;8993;51.822;-2.268;2023-03-13T20:30:37;42.23;;;5.59;;
17741;SDS011;8993;51.822;-2.268;2023-03-13T20:35:40;38.18;;;5.47;;
17741;SDS011;8993;51.822;-2.268;2023-03-13T20:40:50;39.29;;;6.14;;
17741;SDS011;8993;51.822;-2.268;2023-03-13T20:45:48;34.01;;;5.06;;
17741;SDS011;8993;51.822;-2.268;2023-03-13T20:50:52;36.01;;;4.43;;
17741;SDS011;8993;51.822;-2.268;2023-03-13T20:55:56;38.09;;;5.88;;
17741;SDS011;8993;51.822;-2.268;2023-03-13T21:01:00;36.25;;;4.60;;
17741;SDS011;8993;51.822;-2.268;2023-03-13T21:06:07;30.31;;;4.13;;
17741;SDS011;8993;51.822;-2.268;2023-03-13T21:11:11;31.14;;;3.77;;
17741;SDS011;8993;51.822;-2.268;2023-03-13T21:16:12;28.67;;;3.66;;
17741;SDS011;8993;51.822;-2.268;2023-03-13T21:21:16;37.58;;;6.06;;
17741;SDS011;8993;51.822;-2.268;2023-03-13T21:26:19;31.53;;;5.12;;
17741;SDS011;8993;51.822;-2.268;2023-03-13T21:31:23;34.22;;;5.08;;
17741;SDS011;8993;51.822;-2.268;2023-03-13T21:36:27;29.22;;;3.47;;
17741;SDS011;8993;51.822;-2.268;2023-03-13T21:41:32;30.18;;;3.35;;
17741;SDS011;8993;51.822;-2.268;2023-03-13T21:46:35;27.84;;;4.11;;
17741;SDS011;8993;51.822;-2.268;2023-03-13T21:51:40;22.22;;;3.23;;
17741;SDS011;8993;51.822;-2.268;2023-03-13T21:56:44;18.87;;;2.58;;
17741;SDS011;8993;51.822;-2.268;2023-03-13T22:01:48;18.11;;;2.60;;
17741;SDS011;8993;51.822;-2.268;2023-03-13T22:06:51;16.95;;;2.47;;
17741;SDS011;8993;51.822;-2.268;2023-03-13T22:11:55;12.38;;;1.70;;
17741;SDS011;8993;51.822;-2.268;2023-03-13T22:16:59;8.61;;;1.67;;
17741;SDS011;8993;51.822;-2.268;2023-03-13T22:22:04;7.18;;;1.13;;
17741;SDS011;8993;51.822;-2.268;2023-03-13T22:27:07;4.09;;;0.56;;
17741;SDS011;8993;51.822;-2.268;2023-03-13T22:32:11;2.46;;;0.39;;
17741;SDS011;8993;51.822;-2.268;2023-03-13T22:37:15;1.72;;;0.30;;
17741;SDS011;8993;51.822;-2.268;2023-03-13T22:42:20;0.75;;;0.21;;
17741;SDS011;8993;51.822;-2.268;2023-03-13T22:47:23;0.48;;;0.10;;
17741;SDS011;8993;51.822;-2.268;2023-03-13T22:52:27;0.76;;;0.10;;
17741;SDS011;8993;51.822;-2.268;2023-03-13T22:57:31;0.44;;;0.13;;
17741;SDS011;8993;51.822;-2.268;2023-03-13T23:02:35;0.43;;;0.09;;
17741;SDS011;8993;51.822;-2.268;2023-03-13T23:07:39;0.94;;;0.30;;
17741;SDS011;8993;51.822;-2.268;2023-03-13T23:12:43;1.59;;;0.40;;
17741;SDS011;8993;51.822;-2.268;2023-03-13T23:17:47;0.93;;;0.17;;
17741;SDS011;8993;51.822;-2.268;2023-03-13T23:22:51;0.96;;;0.19;;
17741;SDS011;8993;51.822;-2.268;2023-03-13T23:27:55;0.78;;;0.20;;
17741;SDS011;8993;51.822;-2.268;2023-03-13T23:32:59;1.06;;;0.23;;
17741;SDS011;8993;51.822;-2.268;2023-03-13T23:38:03;1.03;;;0.20;;
17741;SDS011;8993;51.822;-2.268;2023-03-13T23:43:07;1.62;;;0.22;;
17741;SDS011;8993;51.822;-2.268;2023-03-13T23:48:11;1.33;;;0.29;;
17741;SDS011;8993;51.822;-2.268;2023-03-13T23:53:16;0.71;;;0.24;;
17741;SDS011;8993;51.822;-2.268;2023-03-13T23:58:20;2.04;;;0.36;;
